This is the latest recevied weather packets stored in our database for station/object BMCB-28. If no packets are shown the sender has not sent any weather packets the latest 10 day(s).
| Time | Temp. | Humidity | Pressure | Rain* | Wind** | Luminosity | Snow |
|---|---|---|---|---|---|---|---|
| 1777743058 | 13.89° C | 95% | 1016.7 hPa | 3.3 mm | - | 36 W/m² | - |
| 1777742455 | 13.89° C | 94% | 1016.7 hPa | 4.57 mm | - | 28 W/m² | - |
| 1777741854 | 13.89° C | 92% | 1016.7 hPa | 4.57 mm | - | 8 W/m² | - |
| 1777741255 | 14.44° C | 89% | 1017 hPa | 4.32 mm | - | 2 W/m² | - |
| 1777737051 | 21.11° C | 51% | 1015.7 hPa | 0 mm | - | 194 W/m² | - |
| 1777723248 | 19.44° C | 57% | 1019.3 hPa | 0 mm | - | 262 W/m² | - |
| 1777722048 | 20° C | 54% | 1019.2 hPa | 0 mm | - | 158 W/m² | - |
| 1777720249 | 20° C | 53% | 1019.3 hPa | 0 mm | - | 318 W/m² | - |
| 1777711247 | 17.22° C | 56% | 1021 hPa | 0 mm | - | 454 W/m² | - |
| 1777702847 | 11.67° C | 63% | 1022.7 hPa | 0 mm | - | 92 W/m² | - |
| 1777699246 | 9.44° C | 67% | 1023.1 hPa | 0 mm | - | 54 W/m² | - |
| 1777696246 | 5.56° C | 75% | 1023.8 hPa | 0 mm | - | 14 W/m² | - |
| 1777695041 | 5.56° C | 73% | 1023.7 hPa | 0 mm | - | 2 W/m² | - |
| 1777693847 | 5.56° C | 74% | 1024.1 hPa | 0 mm | - | 0 W/m² | - |
| 1777689645 | 5.56° C | 71% | 1024.2 hPa | 0 mm | - | 0 W/m² | - |
| 1777685445 | 6.11° C | 67% | 1024.3 hPa | 0 mm | - | 0 W/m² | - |
| 1777680050 | 7.22° C | 63% | 1024.6 hPa | 0 mm | - | 0 W/m² | - |
| 1777662657 | 14.44° C | 39% | 1023.4 hPa | 0 mm | - | 0 W/m² | - |
| 1777650049 | 21.11° C | 27% | 1022 hPa | 0 mm | - | 468 W/m² | - |
| 1777648250 | 20.56° C | 26% | 1022.3 hPa | 0 mm | - | 548 W/m² | - |
| 1777647046 | 20.56° C | 26% | 1022.4 hPa | 0 mm | - | 594 W/m² | - |
| 1777645848 | 21.11° C | 27% | 1022.5 hPa | 0 mm | - | 638 W/m² | - |
| 1777643449 | 20.56° C | 27% | 1022.8 hPa | 0 mm | - | 712 W/m² | - |
| 1777639850 | 20° C | 26% | 1023.5 hPa | 0 mm | - | 786 W/m² | - |
| 1777638652 | 19.44° C | 25% | 1023.6 hPa | 0 mm | - | 800 W/m² | - |
* Rain latest hour (hover to see other rain measurements)
** Current wind speed in m/s (hover to see current wind gust speed)